Hlavní strana
METAR-TAF:

METAR-TAF

Letiště :

Sétif, Alžírsko

zeměpisná šířka: 36-11N, zeměpisná délka: 005-25E, výška: 1038 m

Aktuální stav počasí

Zpráva byla vytvořena před 51 minutami, v 04:00 UTC
Severovýchodní vítr 3 kt
Teplota 1°C
Vlhkost vzduchu 75%
Tlak 1022 hPa
Viditelnost 10 km a více
Žádná oblačnost pod 1500 m, nevyskytují se cumulonimby.

METAR: DAAS 250400Z 04003KT CAVOK 01/M03 Q1022

Čas: 05:51 (04:51 UTC)

Předpověď počasí

Zpráva byla vytvořena před 5 hodinami a 51 minutami, v 23:00 UTC
Předpověď platná od 25 v 00 UTC do 25 v 24 UTC
Západní vítr 8 kt
Viditelnost 10 km a více
Žádná oblačnost pod 1500 m, nevyskytují se cumulonimby.
Pravděpodobnost 30% :
Dočasný
od 25 v 02 UTC do 25 v 08 UTC
Viditelnost: 2000 m
Polojasno ve výšce 1000 ft
kouřmo
Změna
od 25 v 10 UTC do 25 v 12 UTC
Jihojihozápadní vítr 14 kt
Změna
od 25 v 18 UTC do 25 v 20 UTC
Západní vítr 8 kt

TAF: DAAS 242300Z 2500/2524 26008KT CAVOK PROB30 TEMPO 2502/2508 2000 BR SCT010 BECMG 2510/2512 20014KT BECMG 2518/2520 26008KT

Stav a předpovědi počasí z více než 4 000 letišť (zprávy METAR a TAF).

Červené a žluté tečky na mapě představují dostupné meteorologické stanice.

Když kurzor umístíte na tečku, zobrazí se název stanice.

Pak kliknutím zobrazíte stav a předpověď počasí.

Chcete-li změnit mapu, kliknutím na zelené tlačítko se znaménkem +mapu přiblížíte, kliknutím na zelené tlačítko se znaménkem – mapu oddálíte a kliknutím na zelené šipky přejdete na sousední mapy.


METAR-TAF: